sensor_id;sensor_type;location;lat;lon;timestamp;P1;durP1;ratioP1;P2;durP2;ratioP2
22922;SDS011;11627;51.322;22.816;2023-07-13T00:02:00;11.75;;;5.93;;
22922;SDS011;11627;51.322;22.816;2023-07-13T00:04:27;12.30;;;5.35;;
22922;SDS011;11627;51.322;22.816;2023-07-13T00:06:54;18.27;;;6.00;;
22922;SDS011;11627;51.322;22.816;2023-07-13T00:09:21;10.48;;;5.35;;
22922;SDS011;11627;51.322;22.816;2023-07-13T00:11:50;12.68;;;5.82;;
22922;SDS011;11627;51.322;22.816;2023-07-13T00:14:24;13.98;;;5.72;;
22922;SDS011;11627;51.322;22.816;2023-07-13T00:16:54;16.23;;;5.75;;
22922;SDS011;11627;51.322;22.816;2023-07-13T00:19:20;12.07;;;6.10;;
22922;SDS011;11627;51.322;22.816;2023-07-13T00:21:48;9.43;;;5.65;;
22922;SDS011;11627;51.322;22.816;2023-07-13T00:24:16;15.48;;;5.45;;
22922;SDS011;11627;51.322;22.816;2023-07-13T00:26:49;12.70;;;5.47;;
22922;SDS011;11627;51.322;22.816;2023-07-13T00:29:17;12.10;;;5.35;;
22922;SDS011;11627;51.322;22.816;2023-07-13T00:31:44;6.43;;;4.80;;
22922;SDS011;11627;51.322;22.816;2023-07-13T00:34:12;12.40;;;5.35;;
22922;SDS011;11627;51.322;22.816;2023-07-13T00:36:40;12.75;;;5.85;;
22922;SDS011;11627;51.322;22.816;2023-07-13T00:39:07;9.30;;;5.18;;
22922;SDS011;11627;51.322;22.816;2023-07-13T00:41:34;12.13;;;5.07;;
22922;SDS011;11627;51.322;22.816;2023-07-13T00:44:03;12.50;;;4.85;;
22922;SDS011;11627;51.322;22.816;2023-07-13T00:46:35;21.25;;;5.18;;
22922;SDS011;11627;51.322;22.816;2023-07-13T00:49:06;17.17;;;5.75;;
22922;SDS011;11627;51.322;22.816;2023-07-13T00:51:41;11.00;;;5.30;;
22922;SDS011;11627;51.322;22.816;2023-07-13T00:54:17;12.50;;;5.07;;
22922;SDS011;11627;51.322;22.816;2023-07-13T00:56:49;14.82;;;5.32;;
22922;SDS011;11627;51.322;22.816;2023-07-13T00:59:20;15.75;;;5.50;;
22922;SDS011;11627;51.322;22.816;2023-07-13T01:01:49;28.38;;;5.97;;
22922;SDS011;11627;51.322;22.816;2023-07-13T01:04:17;15.20;;;5.50;;
22922;SDS011;11627;51.322;22.816;2023-07-13T01:06:45;16.48;;;5.70;;
22922;SDS011;11627;51.322;22.816;2023-07-13T01:09:13;12.80;;;5.65;;
22922;SDS011;11627;51.322;22.816;2023-07-13T01:11:42;13.95;;;5.32;;
22922;SDS011;11627;51.322;22.816;2023-07-13T01:14:11;10.50;;;5.15;;
22922;SDS011;11627;51.322;22.816;2023-07-13T01:16:40;14.88;;;5.43;;
22922;SDS011;11627;51.322;22.816;2023-07-13T01:19:14;13.30;;;6.63;;
22922;SDS011;11627;51.322;22.816;2023-07-13T01:22:06;11.85;;;5.85;;
22922;SDS011;11627;51.322;22.816;2023-07-13T01:24:38;11.48;;;5.43;;
22922;SDS011;11627;51.322;22.816;2023-07-13T01:27:15;10.38;;;5.70;;
22922;SDS011;11627;51.322;22.816;2023-07-13T01:29:46;12.95;;;5.90;;
22922;SDS011;11627;51.322;22.816;2023-07-13T01:32:15;18.23;;;5.70;;
22922;SDS011;11627;51.322;22.816;2023-07-13T01:34:48;12.98;;;5.65;;
22922;SDS011;11627;51.322;22.816;2023-07-13T01:37:20;14.98;;;6.00;;
22922;SDS011;11627;51.322;22.816;2023-07-13T01:39:52;11.38;;;6.20;;
22922;SDS011;11627;51.322;22.816;2023-07-13T01:42:19;13.93;;;5.75;;
22922;SDS011;11627;51.322;22.816;2023-07-13T01:44:46;13.05;;;6.30;;
22922;SDS011;11627;51.322;22.816;2023-07-13T01:47:13;21.83;;;7.03;;
22922;SDS011;11627;51.322;22.816;2023-07-13T01:49:40;19.10;;;5.93;;
22922;SDS011;11627;51.322;22.816;2023-07-13T01:52:08;27.52;;;6.50;;
22922;SDS011;11627;51.322;22.816;2023-07-13T01:54:35;20.27;;;6.53;;
22922;SDS011;11627;51.322;22.816;2023-07-13T01:57:02;19.45;;;7.70;;
22922;SDS011;11627;51.322;22.816;2023-07-13T01:59:30;17.60;;;6.68;;
22922;SDS011;11627;51.322;22.816;2023-07-13T02:01:59;19.15;;;7.47;;
22922;SDS011;11627;51.322;22.816;2023-07-13T02:04:26;24.02;;;7.70;;
22922;SDS011;11627;51.322;22.816;2023-07-13T02:06:53;15.07;;;7.38;;
22922;SDS011;11627;51.322;22.816;2023-07-13T02:09:21;14.70;;;7.68;;
22922;SDS011;11627;51.322;22.816;2023-07-13T02:11:48;18.00;;;7.10;;
22922;SDS011;11627;51.322;22.816;2023-07-13T02:14:16;15.68;;;7.35;;
22922;SDS011;11627;51.322;22.816;2023-07-13T02:16:46;20.20;;;7.10;;
22922;SDS011;11627;51.322;22.816;2023-07-13T02:19:14;20.67;;;7.28;;
22922;SDS011;11627;51.322;22.816;2023-07-13T02:21:41;22.75;;;7.65;;
22922;SDS011;11627;51.322;22.816;2023-07-13T02:24:09;16.35;;;6.72;;
22922;SDS011;11627;51.322;22.816;2023-07-13T02:26:41;22.10;;;6.40;;
22922;SDS011;11627;51.322;22.816;2023-07-13T02:29:10;17.25;;;6.75;;
22922;SDS011;11627;51.322;22.816;2023-07-13T02:31:37;17.50;;;6.28;;
22922;SDS011;11627;51.322;22.816;2023-07-13T02:34:05;27.05;;;7.95;;
22922;SDS011;11627;51.322;22.816;2023-07-13T02:36:32;16.75;;;7.18;;
22922;SDS011;11627;51.322;22.816;2023-07-13T02:39:00;21.55;;;7.70;;
22922;SDS011;11627;51.322;22.816;2023-07-13T02:41:29;20.67;;;7.65;;
22922;SDS011;11627;51.322;22.816;2023-07-13T02:43:57;23.35;;;7.82;;
22922;SDS011;11627;51.322;22.816;2023-07-13T02:46:34;25.70;;;7.93;;
22922;SDS011;11627;51.322;22.816;2023-07-13T02:49:03;33.00;;;8.40;;
22922;SDS011;11627;51.322;22.816;2023-07-13T02:51:31;16.17;;;7.47;;
22922;SDS011;11627;51.322;22.816;2023-07-13T02:54:00;25.98;;;8.60;;
22922;SDS011;11627;51.322;22.816;2023-07-13T02:56:30;22.23;;;9.23;;
22922;SDS011;11627;51.322;22.816;2023-07-13T02:58:58;17.13;;;8.18;;
22922;SDS011;11627;51.322;22.816;2023-07-13T03:01:26;20.55;;;8.60;;
22922;SDS011;11627;51.322;22.816;2023-07-13T03:03:53;18.90;;;8.50;;
22922;SDS011;11627;51.322;22.816;2023-07-13T03:06:20;22.00;;;8.25;;
22922;SDS011;11627;51.322;22.816;2023-07-13T03:08:47;14.63;;;8.73;;
22922;SDS011;11627;51.322;22.816;2023-07-13T03:11:16;22.60;;;8.63;;
22922;SDS011;11627;51.322;22.816;2023-07-13T03:13:46;22.23;;;8.80;;
22922;SDS011;11627;51.322;22.816;2023-07-13T03:16:14;14.35;;;8.30;;
22922;SDS011;11627;51.322;22.816;2023-07-13T03:18:42;23.67;;;9.23;;
22922;SDS011;11627;51.322;22.816;2023-07-13T03:21:10;21.30;;;8.48;;
22922;SDS011;11627;51.322;22.816;2023-07-13T03:23:37;28.90;;;8.52;;
22922;SDS011;11627;51.322;22.816;2023-07-13T03:26:11;23.85;;;8.57;;
22922;SDS011;11627;51.322;22.816;2023-07-13T03:28:44;18.80;;;8.68;;
22922;SDS011;11627;51.322;22.816;2023-07-13T03:31:14;27.02;;;9.23;;
22922;SDS011;11627;51.322;22.816;2023-07-13T03:33:47;29.25;;;9.20;;
22922;SDS011;11627;51.322;22.816;2023-07-13T03:36:24;20.50;;;9.23;;
22922;SDS011;11627;51.322;22.816;2023-07-13T03:38:55;18.83;;;8.80;;
22922;SDS011;11627;51.322;22.816;2023-07-13T03:41:26;24.05;;;8.98;;
22922;SDS011;11627;51.322;22.816;2023-07-13T03:43:53;18.70;;;9.13;;
22922;SDS011;11627;51.322;22.816;2023-07-13T03:46:21;25.58;;;9.35;;
22922;SDS011;11627;51.322;22.816;2023-07-13T03:48:48;22.50;;;10.02;;
22922;SDS011;11627;51.322;22.816;2023-07-13T03:51:15;24.67;;;9.98;;
22922;SDS011;11627;51.322;22.816;2023-07-13T03:53:44;16.83;;;9.10;;
22922;SDS011;11627;51.322;22.816;2023-07-13T03:56:14;29.33;;;10.10;;
22922;SDS011;11627;51.322;22.816;2023-07-13T03:58:46;22.38;;;9.35;;
22922;SDS011;11627;51.322;22.816;2023-07-13T04:01:16;19.58;;;8.45;;
22922;SDS011;11627;51.322;22.816;2023-07-13T04:03:45;20.08;;;9.55;;
22922;SDS011;11627;51.322;22.816;2023-07-13T04:06:16;20.40;;;9.85;;
22922;SDS011;11627;51.322;22.816;2023-07-13T04:08:48;25.25;;;9.88;;
22922;SDS011;11627;51.322;22.816;2023-07-13T04:11:17;24.17;;;10.80;;
22922;SDS011;11627;51.322;22.816;2023-07-13T04:13:47;23.10;;;10.23;;
22922;SDS011;11627;51.322;22.816;2023-07-13T04:16:14;25.00;;;10.93;;
22922;SDS011;11627;51.322;22.816;2023-07-13T04:18:42;21.58;;;9.52;;
22922;SDS011;11627;51.322;22.816;2023-07-13T04:21:11;23.98;;;11.07;;
22922;SDS011;11627;51.322;22.816;2023-07-13T04:23:39;23.13;;;12.00;;
22922;SDS011;11627;51.322;22.816;2023-07-13T04:26:06;21.38;;;10.90;;
22922;SDS011;11627;51.322;22.816;2023-07-13T04:28:34;24.05;;;11.52;;
22922;SDS011;11627;51.322;22.816;2023-07-13T04:31:02;26.27;;;11.52;;
22922;SDS011;11627;51.322;22.816;2023-07-13T04:33:29;22.17;;;11.15;;
22922;SDS011;11627;51.322;22.816;2023-07-13T04:35:57;27.00;;;12.18;;
22922;SDS011;11627;51.322;22.816;2023-07-13T04:38:29;21.35;;;11.55;;
22922;SDS011;11627;51.322;22.816;2023-07-13T04:41:00;19.25;;;11.88;;
22922;SDS011;11627;51.322;22.816;2023-07-13T04:43:29;21.42;;;12.68;;
22922;SDS011;11627;51.322;22.816;2023-07-13T04:45:57;20.25;;;12.48;;
22922;SDS011;11627;51.322;22.816;2023-07-13T04:48:34;30.15;;;13.38;;
22922;SDS011;11627;51.322;22.816;2023-07-13T04:51:02;24.55;;;13.00;;
22922;SDS011;11627;51.322;22.816;2023-07-13T04:53:30;24.10;;;12.32;;
22922;SDS011;11627;51.322;22.816;2023-07-13T04:55:59;20.05;;;13.10;;
22922;SDS011;11627;51.322;22.816;2023-07-13T04:58:28;19.20;;;13.18;;
22922;SDS011;11627;51.322;22.816;2023-07-13T05:00:59;22.85;;;13.95;;
22922;SDS011;11627;51.322;22.816;2023-07-13T05:03:28;22.58;;;14.85;;
22922;SDS011;11627;51.322;22.816;2023-07-13T05:06:04;24.00;;;14.50;;
22922;SDS011;11627;51.322;22.816;2023-07-13T05:08:36;19.85;;;13.80;;
22922;SDS011;11627;51.322;22.816;2023-07-13T05:11:03;15.77;;;13.27;;
22922;SDS011;11627;51.322;22.816;2023-07-13T05:13:32;22.50;;;14.07;;
22922;SDS011;11627;51.322;22.816;2023-07-13T05:16:00;16.52;;;11.70;;
22922;SDS011;11627;51.322;22.816;2023-07-13T05:18:30;18.00;;;12.68;;
22922;SDS011;11627;51.322;22.816;2023-07-13T05:21:07;22.35;;;13.80;;
22922;SDS011;11627;51.322;22.816;2023-07-13T05:23:36;22.05;;;14.57;;
22922;SDS011;11627;51.322;22.816;2023-07-13T05:26:05;20.70;;;12.93;;
22922;SDS011;11627;51.322;22.816;2023-07-13T05:28:32;17.00;;;12.23;;
22922;SDS011;11627;51.322;22.816;2023-07-13T05:30:59;19.45;;;14.00;;
22922;SDS011;11627;51.322;22.816;2023-07-13T05:33:26;14.43;;;12.38;;
22922;SDS011;11627;51.322;22.816;2023-07-13T05:35:54;20.95;;;13.70;;
22922;SDS011;11627;51.322;22.816;2023-07-13T05:38:22;19.63;;;13.82;;
22922;SDS011;11627;51.322;22.816;2023-07-13T05:40:49;17.85;;;13.27;;
22922;SDS011;11627;51.322;22.816;2023-07-13T05:43:16;17.92;;;13.43;;
22922;SDS011;11627;51.322;22.816;2023-07-13T05:45:43;17.17;;;13.35;;
22922;SDS011;11627;51.322;22.816;2023-07-13T05:48:10;20.60;;;13.38;;
22922;SDS011;11627;51.322;22.816;2023-07-13T05:50:37;16.48;;;11.82;;
22922;SDS011;11627;51.322;22.816;2023-07-13T05:53:05;16.35;;;12.10;;
22922;SDS011;11627;51.322;22.816;2023-07-13T05:55:33;17.60;;;13.18;;
22922;SDS011;11627;51.322;22.816;2023-07-13T05:58:00;22.52;;;13.10;;
22922;SDS011;11627;51.322;22.816;2023-07-13T06:00:26;16.88;;;12.00;;
22922;SDS011;11627;51.322;22.816;2023-07-13T06:02:55;14.75;;;11.38;;
22922;SDS011;11627;51.322;22.816;2023-07-13T06:05:23;16.35;;;12.52;;
22922;SDS011;11627;51.322;22.816;2023-07-13T06:07:50;18.38;;;12.77;;
22922;SDS011;11627;51.322;22.816;2023-07-13T06:10:18;21.38;;;12.20;;
22922;SDS011;11627;51.322;22.816;2023-07-13T06:12:47;22.02;;;12.65;;
22922;SDS011;11627;51.322;22.816;2023-07-13T06:15:14;13.25;;;10.07;;
22922;SDS011;11627;51.322;22.816;2023-07-13T06:17:42;17.73;;;12.07;;
22922;SDS011;11627;51.322;22.816;2023-07-13T06:20:09;13.90;;;10.57;;
22922;SDS011;11627;51.322;22.816;2023-07-13T06:22:37;17.23;;;11.45;;
22922;SDS011;11627;51.322;22.816;2023-07-13T06:25:05;18.08;;;11.85;;
22922;SDS011;11627;51.322;22.816;2023-07-13T06:27:33;13.98;;;10.90;;
22922;SDS011;11627;51.322;22.816;2023-07-13T06:30:00;17.70;;;10.82;;
22922;SDS011;11627;51.322;22.816;2023-07-13T06:32:28;15.05;;;11.27;;
22922;SDS011;11627;51.322;22.816;2023-07-13T06:34:54;16.35;;;11.27;;
22922;SDS011;11627;51.322;22.816;2023-07-13T06:37:22;17.75;;;11.25;;
22922;SDS011;11627;51.322;22.816;2023-07-13T06:39:49;15.05;;;11.75;;
22922;SDS011;11627;51.322;22.816;2023-07-13T06:42:16;13.48;;;10.48;;
22922;SDS011;11627;51.322;22.816;2023-07-13T06:44:43;17.05;;;10.40;;
22922;SDS011;11627;51.322;22.816;2023-07-13T06:47:11;13.07;;;9.88;;
22922;SDS011;11627;51.322;22.816;2023-07-13T06:49:38;16.10;;;11.13;;
22922;SDS011;11627;51.322;22.816;2023-07-13T06:52:06;13.57;;;11.10;;
22922;SDS011;11627;51.322;22.816;2023-07-13T06:54:34;18.70;;;12.07;;
22922;SDS011;11627;51.322;22.816;2023-07-13T06:57:01;14.60;;;11.48;;
22922;SDS011;11627;51.322;22.816;2023-07-13T06:59:28;17.05;;;11.13;;
22922;SDS011;11627;51.322;22.816;2023-07-13T07:01:55;17.75;;;10.60;;
22922;SDS011;11627;51.322;22.816;2023-07-13T07:04:22;12.57;;;9.93;;
22922;SDS011;11627;51.322;22.816;2023-07-13T07:06:49;14.60;;;10.48;;
22922;SDS011;11627;51.322;22.816;2023-07-13T07:09:16;12.88;;;10.05;;
22922;SDS011;11627;51.322;22.816;2023-07-13T07:11:44;13.20;;;10.30;;
22922;SDS011;11627;51.322;22.816;2023-07-13T07:14:11;13.82;;;9.80;;
22922;SDS011;11627;51.322;22.816;2023-07-13T07:16:38;12.82;;;9.50;;
22922;SDS011;11627;51.322;22.816;2023-07-13T07:19:05;12.32;;;8.68;;
22922;SDS011;11627;51.322;22.816;2023-07-13T07:21:32;13.95;;;9.70;;
22922;SDS011;11627;51.322;22.816;2023-07-13T07:23:59;11.57;;;9.05;;
22922;SDS011;11627;51.322;22.816;2023-07-13T07:26:26;14.43;;;10.38;;
22922;SDS011;11627;51.322;22.816;2023-07-13T07:28:53;15.98;;;9.20;;
22922;SDS011;11627;51.322;22.816;2023-07-13T07:31:20;16.15;;;9.60;;
22922;SDS011;11627;51.322;22.816;2023-07-13T07:33:47;13.40;;;9.90;;
22922;SDS011;11627;51.322;22.816;2023-07-13T07:36:16;13.23;;;9.10;;
22922;SDS011;11627;51.322;22.816;2023-07-13T07:38:42;13.48;;;9.02;;
22922;SDS011;11627;51.322;22.816;2023-07-13T07:41:10;13.10;;;9.65;;
22922;SDS011;11627;51.322;22.816;2023-07-13T07:43:36;12.55;;;9.18;;
22922;SDS011;11627;51.322;22.816;2023-07-13T07:46:03;16.60;;;9.40;;
22922;SDS011;11627;51.322;22.816;2023-07-13T07:48:30;12.65;;;9.20;;
22922;SDS011;11627;51.322;22.816;2023-07-13T07:50:56;10.43;;;8.73;;
22922;SDS011;11627;51.322;22.816;2023-07-13T07:53:23;11.88;;;9.15;;
22922;SDS011;11627;51.322;22.816;2023-07-13T07:55:49;11.20;;;8.77;;
22922;SDS011;11627;51.322;22.816;2023-07-13T07:58:16;12.02;;;9.57;;
22922;SDS011;11627;51.322;22.816;2023-07-13T08:00:42;13.60;;;9.80;;
22922;SDS011;11627;51.322;22.816;2023-07-13T08:03:09;14.63;;;9.05;;
22922;SDS011;11627;51.322;22.816;2023-07-13T08:05:35;14.57;;;9.07;;
22922;SDS011;11627;51.322;22.816;2023-07-13T08:08:02;13.65;;;9.02;;
22922;SDS011;11627;51.322;22.816;2023-07-13T08:10:28;10.43;;;9.27;;
22922;SDS011;11627;51.322;22.816;2023-07-13T08:12:55;15.57;;;8.68;;
22922;SDS011;11627;51.322;22.816;2023-07-13T08:15:21;12.07;;;9.45;;
22922;SDS011;11627;51.322;22.816;2023-07-13T08:17:47;14.40;;;9.65;;
22922;SDS011;11627;51.322;22.816;2023-07-13T08:20:14;11.77;;;9.23;;
22922;SDS011;11627;51.322;22.816;2023-07-13T08:22:40;14.88;;;9.80;;
22922;SDS011;11627;51.322;22.816;2023-07-13T08:25:07;15.68;;;10.48;;
22922;SDS011;11627;51.322;22.816;2023-07-13T08:27:33;16.02;;;10.60;;
22922;SDS011;11627;51.322;22.816;2023-07-13T08:30:01;16.25;;;9.95;;
22922;SDS011;11627;51.322;22.816;2023-07-13T08:32:27;15.63;;;10.18;;
22922;SDS011;11627;51.322;22.816;2023-07-13T08:34:54;14.30;;;10.27;;
22922;SDS011;11627;51.322;22.816;2023-07-13T08:37:21;15.18;;;9.77;;
22922;SDS011;11627;51.322;22.816;2023-07-13T08:39:48;16.58;;;10.10;;
22922;SDS011;11627;51.322;22.816;2023-07-13T08:45:04;15.27;;;10.25;;
22922;SDS011;11627;51.322;22.816;2023-07-13T08:51:04;16.10;;;10.85;;
22922;SDS011;11627;51.322;22.816;2023-07-13T08:54:01;16.38;;;10.20;;
22922;SDS011;11627;51.322;22.816;2023-07-13T08:56:33;20.05;;;10.88;;
22922;SDS011;11627;51.322;22.816;2023-07-13T08:59:11;18.35;;;10.73;;
22922;SDS011;11627;51.322;22.816;2023-07-13T09:04:47;11.77;;;9.80;;
22922;SDS011;11627;51.322;22.816;2023-07-13T09:07:55;15.52;;;9.90;;
22922;SDS011;11627;51.322;22.816;2023-07-13T09:17:05;17.60;;;10.20;;
22922;SDS011;11627;51.322;22.816;2023-07-13T09:30:23;12.73;;;9.07;;
22922;SDS011;11627;51.322;22.816;2023-07-13T09:33:37;14.00;;;9.48;;
22922;SDS011;11627;51.322;22.816;2023-07-13T09:36:37;16.63;;;11.27;;
22922;SDS011;11627;51.322;22.816;2023-07-13T09:42:18;20.60;;;13.45;;
22922;SDS011;11627;51.322;22.816;2023-07-13T09:48:07;16.48;;;12.15;;
22922;SDS011;11627;51.322;22.816;2023-07-13T09:50:41;17.42;;;11.05;;
22922;SDS011;11627;51.322;22.816;2023-07-13T09:53:12;16.42;;;10.57;;
22922;SDS011;11627;51.322;22.816;2023-07-13T09:55:44;13.65;;;10.48;;
22922;SDS011;11627;51.322;22.816;2023-07-13T09:58:14;17.08;;;10.45;;
22922;SDS011;11627;51.322;22.816;2023-07-13T10:01:03;12.25;;;9.75;;
22922;SDS011;11627;51.322;22.816;2023-07-13T10:03:32;16.67;;;10.77;;
22922;SDS011;11627;51.322;22.816;2023-07-13T10:08:53;14.00;;;9.80;;
22922;SDS011;11627;51.322;22.816;2023-07-13T10:14:17;13.15;;;9.45;;
22922;SDS011;11627;51.322;22.816;2023-07-13T10:16:55;14.57;;;10.15;;
22922;SDS011;11627;51.322;22.816;2023-07-13T10:19:31;11.13;;;9.32;;
22922;SDS011;11627;51.322;22.816;2023-07-13T10:22:02;12.00;;;9.15;;
22922;SDS011;11627;51.322;22.816;2023-07-13T10:24:48;12.95;;;9.23;;
22922;SDS011;11627;51.322;22.816;2023-07-13T10:27:36;18.20;;;10.02;;
22922;SDS011;11627;51.322;22.816;2023-07-13T10:30:25;13.93;;;9.98;;
22922;SDS011;11627;51.322;22.816;2023-07-13T10:32:57;14.35;;;9.63;;
22922;SDS011;11627;51.322;22.816;2023-07-13T10:35:28;13.90;;;9.98;;
22922;SDS011;11627;51.322;22.816;2023-07-13T10:38:07;10.18;;;7.75;;
22922;SDS011;11627;51.322;22.816;2023-07-13T10:46:22;15.13;;;8.68;;
22922;SDS011;11627;51.322;22.816;2023-07-13T10:48:55;11.70;;;9.40;;
22922;SDS011;11627;51.322;22.816;2023-07-13T10:51:26;12.98;;;8.80;;
22922;SDS011;11627;51.322;22.816;2023-07-13T10:59:47;13.85;;;10.05;;
22922;SDS011;11627;51.322;22.816;2023-07-13T11:02:37;12.65;;;9.07;;
22922;SDS011;11627;51.322;22.816;2023-07-13T11:05:25;11.88;;;9.07;;
22922;SDS011;11627;51.322;22.816;2023-07-13T11:14:25;14.60;;;9.18;;
22922;SDS011;11627;51.322;22.816;2023-07-13T11:20:31;14.20;;;9.75;;
22922;SDS011;11627;51.322;22.816;2023-07-13T11:23:18;12.15;;;9.75;;
22922;SDS011;11627;51.322;22.816;2023-07-13T11:25:54;12.95;;;8.82;;
22922;SDS011;11627;51.322;22.816;2023-07-13T11:28:25;14.00;;;9.02;;
22922;SDS011;11627;51.322;22.816;2023-07-13T11:31:00;13.43;;;9.48;;
22922;SDS011;11627;51.322;22.816;2023-07-13T11:33:49;14.68;;;9.45;;
22922;SDS011;11627;51.322;22.816;2023-07-13T11:36:23;13.60;;;9.20;;
22922;SDS011;11627;51.322;22.816;2023-07-13T11:42:01;12.30;;;9.70;;
22922;SDS011;11627;51.322;22.816;2023-07-13T11:44:32;13.10;;;10.25;;
22922;SDS011;11627;51.322;22.816;2023-07-13T11:47:11;14.90;;;10.07;;
22922;SDS011;11627;51.322;22.816;2023-07-13T11:49:50;15.63;;;10.85;;
22922;SDS011;11627;51.322;22.816;2023-07-13T11:52:35;13.63;;;9.75;;
22922;SDS011;11627;51.322;22.816;2023-07-13T11:55:04;15.70;;;9.85;;
22922;SDS011;11627;51.322;22.816;2023-07-13T11:57:45;12.07;;;9.43;;
22922;SDS011;11627;51.322;22.816;2023-07-13T12:00:30;13.55;;;9.15;;
22922;SDS011;11627;51.322;22.816;2023-07-13T12:03:00;14.32;;;9.63;;
22922;SDS011;11627;51.322;22.816;2023-07-13T12:05:31;10.30;;;8.70;;
22922;SDS011;11627;51.322;22.816;2023-07-13T12:07:59;12.48;;;8.85;;
22922;SDS011;11627;51.322;22.816;2023-07-13T12:10:35;11.30;;;8.93;;
22922;SDS011;11627;51.322;22.816;2023-07-13T12:13:04;10.65;;;8.77;;
22922;SDS011;11627;51.322;22.816;2023-07-13T12:18:19;14.00;;;9.02;;
22922;SDS011;11627;51.322;22.816;2023-07-13T12:20:50;13.07;;;9.05;;
22922;SDS011;11627;51.322;22.816;2023-07-13T12:23:30;11.05;;;8.73;;
22922;SDS011;11627;51.322;22.816;2023-07-13T12:26:01;11.60;;;8.80;;
22922;SDS011;11627;51.322;22.816;2023-07-13T12:31:35;11.48;;;9.10;;
22922;SDS011;11627;51.322;22.816;2023-07-13T12:36:59;13.95;;;9.73;;
22922;SDS011;11627;51.322;22.816;2023-07-13T12:42:24;12.80;;;9.88;;
22922;SDS011;11627;51.322;22.816;2023-07-13T12:47:56;13.82;;;9.57;;
22922;SDS011;11627;51.322;22.816;2023-07-13T12:50:42;12.65;;;10.02;;
22922;SDS011;11627;51.322;22.816;2023-07-13T12:53:15;14.98;;;9.80;;
22922;SDS011;11627;51.322;22.816;2023-07-13T12:56:08;15.05;;;10.35;;
22922;SDS011;11627;51.322;22.816;2023-07-13T12:58:47;12.13;;;9.05;;
22922;SDS011;11627;51.322;22.816;2023-07-13T13:01:21;13.65;;;9.88;;
22922;SDS011;11627;51.322;22.816;2023-07-13T13:03:50;12.27;;;9.80;;
22922;SDS011;11627;51.322;22.816;2023-07-13T13:06:24;14.60;;;9.45;;
22922;SDS011;11627;51.322;22.816;2023-07-13T13:08:58;14.48;;;10.40;;
22922;SDS011;11627;51.322;22.816;2023-07-13T13:11:26;13.82;;;9.13;;
22922;SDS011;11627;51.322;22.816;2023-07-13T13:13:56;12.10;;;8.75;;
22922;SDS011;11627;51.322;22.816;2023-07-13T13:16:37;14.65;;;9.35;;
22922;SDS011;11627;51.322;22.816;2023-07-13T13:19:18;14.55;;;9.65;;
22922;SDS011;11627;51.322;22.816;2023-07-13T13:21:55;10.40;;;9.00;;
22922;SDS011;11627;51.322;22.816;2023-07-13T13:24:24;13.70;;;9.50;;
22922;SDS011;11627;51.322;22.816;2023-07-13T13:26:53;14.13;;;10.40;;
22922;SDS011;11627;51.322;22.816;2023-07-13T13:29:23;14.18;;;10.57;;
22922;SDS011;11627;51.322;22.816;2023-07-13T13:31:52;15.50;;;10.40;;
22922;SDS011;11627;51.322;22.816;2023-07-13T13:34:22;12.90;;;10.40;;
22922;SDS011;11627;51.322;22.816;2023-07-13T13:36:50;14.15;;;10.18;;
22922;SDS011;11627;51.322;22.816;2023-07-13T13:39:25;12.77;;;9.10;;
22922;SDS011;11627;51.322;22.816;2023-07-13T13:42:01;15.75;;;10.65;;
22922;SDS011;11627;51.322;22.816;2023-07-13T13:44:29;15.82;;;10.48;;
22922;SDS011;11627;51.322;22.816;2023-07-13T13:46:56;17.52;;;10.60;;
22922;SDS011;11627;51.322;22.816;2023-07-13T13:49:25;17.20;;;10.57;;
22922;SDS011;11627;51.322;22.816;2023-07-13T13:51:54;12.82;;;10.23;;
22922;SDS011;11627;51.322;22.816;2023-07-13T13:54:22;15.23;;;11.23;;
22922;SDS011;11627;51.322;22.816;2023-07-13T13:56:53;14.73;;;10.93;;
22922;SDS011;11627;51.322;22.816;2023-07-13T13:59:20;18.00;;;11.65;;
22922;SDS011;11627;51.322;22.816;2023-07-13T14:01:47;16.08;;;11.23;;
22922;SDS011;11627;51.322;22.816;2023-07-13T14:04:20;14.73;;;11.02;;
22922;SDS011;11627;51.322;22.816;2023-07-13T14:06:48;14.63;;;10.90;;
22922;SDS011;11627;51.322;22.816;2023-07-13T14:09:16;14.30;;;10.90;;
22922;SDS011;11627;51.322;22.816;2023-07-13T14:11:46;14.82;;;10.85;;
22922;SDS011;11627;51.322;22.816;2023-07-13T14:14:21;14.07;;;10.70;;
22922;SDS011;11627;51.322;22.816;2023-07-13T14:16:50;14.70;;;11.38;;
22922;SDS011;11627;51.322;22.816;2023-07-13T14:19:22;15.18;;;10.95;;
22922;SDS011;11627;51.322;22.816;2023-07-13T14:21:50;12.45;;;10.23;;
22922;SDS011;11627;51.322;22.816;2023-07-13T14:24:19;14.20;;;10.63;;
22922;SDS011;11627;51.322;22.816;2023-07-13T14:26:47;14.98;;;10.65;;
22922;SDS011;11627;51.322;22.816;2023-07-13T14:29:15;15.50;;;10.60;;
22922;SDS011;11627;51.322;22.816;2023-07-13T14:31:45;17.13;;;10.90;;
22922;SDS011;11627;51.322;22.816;2023-07-13T14:34:13;16.38;;;11.25;;
22922;SDS011;11627;51.322;22.816;2023-07-13T14:36:43;15.93;;;11.27;;
22922;SDS011;11627;51.322;22.816;2023-07-13T14:39:17;12.88;;;10.77;;
22922;SDS011;11627;51.322;22.816;2023-07-13T14:41:49;12.15;;;10.50;;
22922;SDS011;11627;51.322;22.816;2023-07-13T14:44:21;17.73;;;11.25;;
22922;SDS011;11627;51.322;22.816;2023-07-13T14:46:52;13.93;;;10.35;;
22922;SDS011;11627;51.322;22.816;2023-07-13T14:52:10;14.50;;;9.93;;
22922;SDS011;11627;51.322;22.816;2023-07-13T14:54:49;14.52;;;10.88;;
22922;SDS011;11627;51.322;22.816;2023-07-13T14:57:18;16.48;;;10.80;;
22922;SDS011;11627;51.322;22.816;2023-07-13T14:59:46;14.95;;;10.20;;
22922;SDS011;11627;51.322;22.816;2023-07-13T15:02:32;17.42;;;10.32;;
22922;SDS011;11627;51.322;22.816;2023-07-13T15:05:04;16.70;;;10.68;;
22922;SDS011;11627;51.322;22.816;2023-07-13T15:07:44;15.38;;;11.63;;
22922;SDS011;11627;51.322;22.816;2023-07-13T15:12:47;16.05;;;12.32;;
22922;SDS011;11627;51.322;22.816;2023-07-13T15:15:16;16.02;;;11.25;;
22922;SDS011;11627;51.322;22.816;2023-07-13T15:17:44;17.85;;;11.50;;
22922;SDS011;11627;51.322;22.816;2023-07-13T15:20:21;14.93;;;12.15;;
22922;SDS011;11627;51.322;22.816;2023-07-13T15:22:53;17.83;;;12.77;;
22922;SDS011;11627;51.322;22.816;2023-07-13T15:25:25;17.17;;;11.68;;
22922;SDS011;11627;51.322;22.816;2023-07-13T15:27:53;17.83;;;12.50;;
22922;SDS011;11627;51.322;22.816;2023-07-13T15:30:21;19.20;;;13.68;;
22922;SDS011;11627;51.322;22.816;2023-07-13T15:32:47;16.65;;;12.63;;
22922;SDS011;11627;51.322;22.816;2023-07-13T15:35:17;20.13;;;10.70;;
22922;SDS011;11627;51.322;22.816;2023-07-13T15:37:49;10.80;;;5.60;;
22922;SDS011;11627;51.322;22.816;2023-07-13T15:40:16;10.98;;;4.82;;
22922;SDS011;11627;51.322;22.816;2023-07-13T15:42:44;9.02;;;4.72;;
22922;SDS011;11627;51.322;22.816;2023-07-13T15:45:18;10.30;;;4.53;;
22922;SDS011;11627;51.322;22.816;2023-07-13T15:47:47;6.00;;;3.67;;
22922;SDS011;11627;51.322;22.816;2023-07-13T15:50:19;4.13;;;3.72;;
22922;SDS011;11627;51.322;22.816;2023-07-13T15:52:56;8.77;;;4.32;;
22922;SDS011;11627;51.322;22.816;2023-07-13T15:55:27;9.25;;;5.28;;
22922;SDS011;11627;51.322;22.816;2023-07-13T15:57:56;5.57;;;4.00;;
22922;SDS011;11627;51.322;22.816;2023-07-13T16:00:23;8.48;;;4.18;;